Time;durP1;ratioP1;P1;durP2;ratioP2;P2;SDS_P1;SDS_P2;PMS_P1;PMS_P2;Temp;Humidity;BMP_temperature;BMP_pressure;BME280_temperature;BME280_humidity;BME280_pressure;Samples;Min_cycle;Max_cycle;Signal;HPM_P1;HPM_P2
2023/09/07 00:00:13;;;;;;;3.47;2.90;;;;;;;20.75;62.56;94017.59;522087;28;836;-47
2023/09/07 00:00:28;;;;;;;4.72;2.85;;;;;;;20.75;62.58;94020.41;522100;28;846;-47
2023/09/07 00:00:44;;;;;;;4.23;2.67;;;;;;;20.76;62.68;94026.75;522041;28;872;-47
2023/09/07 00:01:04;;;;;;;3.03;2.60;;;;;;;20.73;62.65;94017.47;522217;28;777;-49
2023/09/07 00:01:19;;;;;;;3.92;2.75;;;;;;;20.75;62.68;94025.28;522072;28;898;-47
2023/09/07 00:01:34;;;;;;;3.67;2.70;;;;;;;20.74;62.83;94016.13;522099;28;1050;-48
2023/09/07 00:01:52;;;;;;;3.13;2.40;;;;;;;20.73;63.06;94016.72;522143;28;859;-46
2023/09/07 00:02:08;;;;;;;2.97;2.45;;;;;;;20.73;63.06;94016.72;522077;28;883;-47
2023/09/07 00:02:23;;;;;;;2.73;2.47;;;;;;;20.72;63.10;94018.81;522152;28;856;-47
2023/09/07 00:02:38;;;;;;;3.07;2.57;;;;;;;20.72;63.10;94013.19;522109;28;868;-48
2023/09/07 00:02:54;;;;;;;3.38;2.70;;;;;;;20.73;63.11;94016.72;522064;28;844;-48
2023/09/07 00:03:09;;;;;;;2.77;2.47;;;;;;;20.73;63.05;94013.91;522000;28;825;-48
2023/09/07 00:03:25;;;;;;;2.75;2.50;;;;;;;20.73;63.19;94022.34;522026;28;881;-48
2023/09/07 00:03:40;;;;;;;3.17;2.73;;;;;;;20.72;63.20;94018.06;522200;28;829;-48
2023/09/07 00:03:56;;;;;;;3.60;2.72;;;;;;;20.71;63.08;94025.75;522000;28;890;-47
2023/09/07 00:04:12;;;;;;;5.00;2.83;;;;;;;20.71;63.13;94020.13;522123;28;780;-48
2023/09/07 00:04:28;;;;;;;4.07;2.67;;;;;;;20.71;63.05;94022.94;522052;28;888;-46
2023/09/07 00:04:43;;;;;;;2.88;2.60;;;;;;;20.71;63.10;94013.78;522102;28;886;-47
2023/09/07 00:04:59;;;;;;;2.88;2.47;;;;;;;20.69;63.22;94020.00;522196;28;828;-49
2023/09/07 00:05:14;;;;;;;3.23;2.50;;;;;;;20.63;63.33;94007.66;522113;28;835;-46
2023/09/07 00:05:29;;;;;;;3.30;2.57;;;;;;;20.69;63.48;94017.19;521970;28;1161;-46
2023/09/07 00:05:45;;;;;;;3.87;2.80;;;;;;;20.70;63.48;94017.94;522158;28;773;-47
2023/09/07 00:06:00;;;;;;;6.00;2.90;;;;;;;20.70;63.57;94024.28;522142;28;944;-48
2023/09/07 00:06:15;;;;;;;5.40;2.63;;;;;;;20.69;63.65;94022.81;522048;28;859;-47
2023/09/07 00:06:31;;;;;;;3.10;2.60;;;;;;;20.69;63.61;94019.25;521798;28;1224;-46
2023/09/07 00:06:46;;;;;;;3.17;2.65;;;;;;;20.70;63.47;94020.75;522196;28;943;-49
2023/09/07 00:07:02;;;;;;;3.40;2.87;;;;;;;20.69;63.28;94017.19;522078;28;980;-48
2023/09/07 00:07:17;;;;;;;3.55;3.10;;;;;;;20.67;63.19;94016.31;522090;28;1193;-47
2023/09/07 00:07:33;;;;;;;4.32;3.10;;;;;;;20.67;63.32;94013.53;521996;28;1922;-47
2023/09/07 00:07:48;;;;;;;5.07;3.03;;;;;;;20.69;63.65;94020.00;522218;28;812;-47
2023/09/07 00:08:04;;;;;;;4.93;3.00;;;;;;;20.69;63.63;94022.06;522022;28;870;-47
2023/09/07 00:08:19;;;;;;;4.22;2.90;;;;;;;20.69;63.63;94022.81;522198;28;875;-48
2023/09/07 00:08:35;;;;;;;3.70;2.80;;;;;;;20.69;63.74;94022.81;521958;28;1156;-48
2023/09/07 00:08:50;;;;;;;4.30;2.70;;;;;;;20.67;63.64;94017.06;522145;28;883;-47
2023/09/07 00:09:05;;;;;;;3.97;2.63;;;;;;;20.69;63.63;94022.81;522059;28;948;-48
2023/09/07 00:09:22;;;;;;;3.27;2.80;;;;;;;20.67;63.41;94019.88;522167;28;897;-48
2023/09/07 00:09:37;;;;;;;4.55;2.95;;;;;;;20.67;63.11;94019.88;522074;28;832;-47
2023/09/07 00:09:52;;;;;;;4.63;2.90;;;;;;;20.30;63.12;93960.63;522138;28;808;-47
2023/09/07 00:10:08;;;;;;;3.15;2.67;;;;;;;20.66;63.26;94018.38;522061;28;808;-47
2023/09/07 00:10:25;;;;;;;3.20;2.80;;;;;;;20.66;63.21;94024.00;522141;28;778;-47
2023/09/07 00:10:41;;;;;;;3.20;2.90;;;;;;;20.66;63.20;94024.00;522111;28;953;-47
2023/09/07 00:11:03;;;;;;;3.13;2.85;;;;;;;20.65;63.08;94022.53;522147;28;914;-49
2023/09/07 00:11:18;;;;;;;3.30;3.00;;;;;;;20.65;63.24;94019.00;522139;28;836;-47
2023/09/07 00:11:33;;;;;;;3.77;3.00;;;;;;;20.65;63.21;94021.81;522047;28;800;-47
2023/09/07 00:11:49;;;;;;;4.13;3.03;;;;;;;20.65;63.33;94022.53;522135;28;925;-47
2023/09/07 00:12:05;;;;;;;3.30;3.00;;;;;;;20.65;63.24;94016.19;522119;28;806;-49
2023/09/07 00:12:20;;;;;;;3.20;2.90;;;;;;;20.65;63.38;94021.81;522083;28;902;-47
2023/09/07 00:12:39;;;;;;;3.53;3.20;;;;;;;20.64;63.46;94015.47;522095;28;781;-46
2023/09/07 00:12:54;;;;;;;4.15;3.20;;;;;;;20.65;63.35;94019.00;522139;28;898;-47
2023/09/07 00:13:10;;;;;;;4.20;3.00;;;;;;;20.64;63.39;94026.69;522124;28;915;-47
2023/09/07 00:13:25;;;;;;;3.77;2.90;;;;;;;20.64;63.39;94018.25;522041;28;840;-48
2023/09/07 00:13:40;;;;;;;3.15;2.80;;;;;;;20.65;63.36;94019.00;522063;28;860;-47
2023/09/07 00:13:58;;;;;;;3.43;3.10;;;;;;;20.65;63.47;94021.81;522015;28;873;-49
2023/09/07 00:14:13;;;;;;;3.28;2.97;;;;;;;20.65;63.48;94021.81;522069;28;868;-47
2023/09/07 00:14:29;;;;;;;3.40;3.00;;;;;;;20.64;63.67;94014.75;522089;28;931;-47
2023/09/07 00:14:45;;;;;;;4.23;3.20;;;;;;;20.64;63.72;94018.25;522074;28;843;-48
2023/09/07 00:15:00;;;;;;;4.13;3.15;;;;;;;20.65;63.68;94019.00;522134;28;1024;-47
2023/09/07 00:15:15;;;;;;;3.40;3.10;;;;;;;20.65;63.93;94019.00;522108;28;788;-47
2023/09/07 00:15:36;;;;;;;3.20;2.90;;;;;;;20.66;63.78;94020.47;522102;28;956;-47
2023/09/07 00:15:51;;;;;;;3.55;3.05;;;;;;;20.65;63.69;94022.53;522083;28;888;-47
2023/09/07 00:16:08;;;;;;;3.53;3.23;;;;;;;20.62;63.83;94011.81;522101;28;835;-47
2023/09/07 00:16:23;;;;;;;3.47;3.17;;;;;;;20.66;63.88;94024.00;522044;28;950;-47
2023/09/07 00:16:39;;;;;;;3.50;3.20;;;;;;;20.62;63.90;94012.50;522113;28;923;-48
2023/09/07 00:16:54;;;;;;;3.40;3.10;;;;;;;20.66;63.91;94012.78;521880;28;1157;-47
2023/09/07 00:17:10;;;;;;;3.33;3.00;;;;;;;20.66;63.78;94018.38;522104;28;770;-47
2023/09/07 00:17:25;;;;;;;3.77;3.07;;;;;;;20.66;64.04;94018.38;522082;28;840;-48
2023/09/07 00:17:41;;;;;;;3.53;3.00;;;;;;;20.66;63.97;94018.38;522120;28;876;-46
2023/09/07 00:17:56;;;;;;;2.90;2.60;;;;;;;20.67;63.97;94017.06;522063;28;943;-49
2023/09/07 00:18:11;;;;;;;3.03;2.73;;;;;;;20.66;64.12;94015.59;522067;28;765;-48
2023/09/07 00:18:27;;;;;;;3.50;3.20;;;;;;;20.59;64.06;94001.78;522073;28;865;-48
2023/09/07 00:18:43;;;;;;;3.73;3.33;;;;;;;20.67;64.21;94019.88;522105;28;800;-47
2023/09/07 00:18:58;;;;;;;4.03;3.42;;;;;;;20.66;64.13;94012.78;522130;28;851;-47
2023/09/07 00:19:13;;;;;;;3.73;3.30;;;;;;;20.67;64.14;94013.53;522097;28;892;-47
2023/09/07 00:19:31;;;;;;;4.33;3.30;;;;;;;20.67;64.10;94021.94;522045;28;951;-46
2023/09/07 00:19:49;;;;;;;3.70;3.20;;;;;;;20.66;64.01;94021.19;522086;28;938;-47
2023/09/07 00:20:10;;;;;;;3.60;2.95;;;;;;;20.68;63.75;94018.53;521932;28;876;-47
2023/09/07 00:20:26;;;;;;;3.97;2.95;;;;;;;20.66;63.92;94017.69;521970;28;1154;-47
2023/09/07 00:20:41;;;;;;;4.03;3.00;;;;;;;20.66;63.93;94018.38;522147;28;856;-47
2023/09/07 00:20:57;;;;;;;6.43;3.33;;;;;;;20.67;64.06;94019.13;522069;28;915;-47
2023/09/07 00:21:12;;;;;;;6.37;3.50;;;;;;;20.66;64.06;94015.59;522093;28;796;-48
2023/09/07 00:21:27;;;;;;;3.63;3.22;;;;;;;20.64;63.97;94011.94;522116;28;886;-46
2023/09/07 00:21:43;;;;;;;4.03;3.10;;;;;;;20.67;63.99;94016.31;521954;28;784;-48
2023/09/07 00:21:58;;;;;;;5.60;3.27;;;;;;;20.67;64.04;94019.13;521958;28;1133;-47
2023/09/07 00:22:13;;;;;;;4.88;3.10;;;;;;;20.67;64.02;94019.13;521725;28;2464;-47
2023/09/07 00:22:29;;;;;;;4.37;3.03;;;;;;;20.67;64.20;94017.06;521913;28;1045;-48
2023/09/07 00:22:44;;;;;;;4.33;3.20;;;;;;;20.67;64.12;94016.31;521928;28;852;-47
2023/09/07 00:23:01;;;;;;;3.90;3.20;;;;;;;20.67;64.01;94022.69;521987;28;967;-48
2023/09/07 00:23:16;;;;;;;3.60;3.13;;;;;;;20.68;64.15;94021.31;521878;28;883;-48
2023/09/07 00:23:31;;;;;;;3.33;3.03;;;;;;;20.67;64.16;94014.25;521908;28;939;-47
2023/09/07 00:23:47;;;;;;;3.63;3.33;;;;;;;20.68;64.24;94017.81;522076;28;899;-47
2023/09/07 00:24:05;;;;;;;3.63;3.27;;;;;;;20.68;64.16;94020.63;522108;28;839;-49
2023/09/07 00:24:21;;;;;;;3.78;3.22;;;;;;;20.69;64.18;94022.06;522109;28;920;-47
2023/09/07 00:24:36;;;;;;;4.35;3.35;;;;;;;20.68;64.08;94010.09;522052;28;893;-47
2023/09/07 00:24:51;;;;;;;3.87;3.13;;;;;;;20.68;64.12;94018.53;522107;28;938;-47
2023/09/07 00:25:07;;;;;;;3.80;3.07;;;;;;;20.70;64.05;94021.50;522078;28;896;-47
2023/09/07 00:25:22;;;;;;;3.83;3.13;;;;;;;20.70;64.20;94023.56;522093;28;833;-49
2023/09/07 00:25:38;;;;;;;4.00;3.20;;;;;;;20.69;64.06;94017.19;522115;28;818;-50
2023/09/07 00:25:53;;;;;;;3.97;3.20;;;;;;;20.69;64.00;94013.66;522115;28;1214;-48
2023/09/07 00:26:08;;;;;;;3.40;3.10;;;;;;;20.69;63.96;94019.25;522042;28;882;-49
2023/09/07 00:26:24;;;;;;;3.30;3.00;;;;;;;20.69;63.93;94013.66;522118;28;779;-48
2023/09/07 00:26:39;;;;;;;3.25;2.95;;;;;;;20.68;63.99;94018.53;522086;28;826;-49
2023/09/07 00:26:55;;;;;;;3.50;3.20;;;;;;;20.69;63.96;94017.19;522122;28;835;-47
2023/09/07 00:27:11;;;;;;;3.88;3.17;;;;;;;20.69;63.98;94022.06;522090;28;837;-47
2023/09/07 00:27:26;;;;;;;3.05;2.63;;;;;;;20.69;64.00;94014.38;522055;28;1976;-47
2023/09/07 00:27:42;;;;;;;4.60;2.83;;;;;;;20.68;63.99;94015.00;522031;28;1030;-47
2023/09/07 00:27:57;;;;;;;4.80;3.28;;;;;;;20.67;64.01;94019.88;522118;28;833;-46
2023/09/07 00:28:13;;;;;;;4.70;3.53;;;;;;;20.69;63.82;94013.66;521918;28;1114;-47
2023/09/07 00:28:28;;;;;;;4.90;3.33;;;;;;;20.68;63.97;94018.53;522121;28;836;-50
2023/09/07 00:28:43;;;;;;;4.25;3.17;;;;;;;20.68;64.05;94015.72;522022;28;785;-47
2023/09/07 00:28:59;;;;;;;4.00;3.17;;;;;;;20.67;63.99;94022.69;522124;28;1055;-47
2023/09/07 00:29:14;;;;;;;3.30;3.00;;;;;;;20.58;64.16;94012.25;522069;28;835;-48
2023/09/07 00:29:29;;;;;;;4.03;3.63;;;;;;;20.67;64.21;94010.72;522116;28;812;-47
2023/09/07 00:29:45;;;;;;;4.47;3.80;;;;;;;20.66;64.07;94012.78;522044;28;868;-48
2023/09/07 00:30:01;;;;;;;3.93;3.10;;;;;;;20.66;64.09;94012.78;522126;28;757;-47
2023/09/07 00:30:16;;;;;;;3.50;2.78;;;;;;;20.69;64.09;94013.66;521911;28;1200;-47
2023/09/07 00:30:32;;;;;;;3.90;2.70;;;;;;;20.68;64.12;94015.72;522073;28;780;-47
2023/09/07 00:30:47;;;;;;;3.53;2.53;;;;;;;20.68;64.14;94015.72;522070;28;1105;-48
2023/09/07 00:31:03;;;;;;;2.70;2.50;;;;;;;20.69;64.17;94011.59;522039;28;864;-49
2023/09/07 00:31:18;;;;;;;3.00;2.65;;;;;;;20.69;64.14;94008.78;522172;28;993;-47
2023/09/07 00:31:34;;;;;;;4.35;2.80;;;;;;;20.69;64.14;94013.66;521982;28;1136;-48
2023/09/07 00:31:49;;;;;;;4.53;2.97;;;;;;;20.69;64.19;94013.66;522157;28;849;-47
2023/09/07 00:32:05;;;;;;;3.53;3.20;;;;;;;20.68;64.24;94010.09;521982;28;927;-47
2023/09/07 00:32:20;;;;;;;4.18;3.20;;;;;;;20.68;64.19;94012.91;522122;28;781;-47
2023/09/07 00:32:37;;;;;;;4.20;3.27;;;;;;;20.69;64.36;94010.84;522120;28;854;-49
2023/09/07 00:32:53;;;;;;;3.60;3.22;;;;;;;20.67;64.22;94014.25;522089;28;844;-49
2023/09/07 00:33:08;;;;;;;3.40;3.10;;;;;;;20.68;64.40;94004.50;522062;28;876;-48
2023/09/07 00:33:23;;;;;;;3.23;2.93;;;;;;;20.67;64.47;94008.66;522017;28;950;-47
2023/09/07 00:33:39;;;;;;;3.20;2.90;;;;;;;20.59;64.47;93996.16;522071;28;1095;-48
2023/09/07 00:33:54;;;;;;;3.13;2.80;;;;;;;20.67;64.63;94003.03;522024;28;765;-47
2023/09/07 00:34:10;;;;;;;3.60;2.80;;;;;;;20.67;64.64;94014.25;522009;28;820;-48
2023/09/07 00:34:26;;;;;;;3.47;2.80;;;;;;;20.66;64.77;94009.97;522071;28;855;-48
2023/09/07 00:34:41;;;;;;;3.07;2.77;;;;;;;20.67;64.91;94005.09;521868;28;1452;-48
2023/09/07 00:34:56;;;;;;;3.15;2.78;;;;;;;20.66;64.89;94003.66;521980;28;768;-47
2023/09/07 00:35:12;;;;;;;3.53;2.80;;;;;;;20.65;64.93;94002.91;521885;28;864;-47
2023/09/07 00:35:27;;;;;;;3.17;2.67;;;;;;;20.66;64.96;94000.84;521847;28;1054;-47
2023/09/07 00:35:42;;;;;;;3.05;2.75;;;;;;;20.65;65.00;94007.78;521902;28;828;-48
2023/09/07 00:35:58;;;;;;;3.17;2.73;;;;;;;20.64;65.00;94001.44;521942;28;880;-47
2023/09/07 00:36:13;;;;;;;2.90;2.60;;;;;;;20.65;64.96;94010.59;521794;28;876;-48
2023/09/07 00:36:28;;;;;;;3.17;2.88;;;;;;;20.35;64.97;93962.38;521916;28;881;-47
2023/09/07 00:36:44;;;;;;;2.90;2.60;;;;;;;20.63;65.04;94002.78;522145;28;832;-48
2023/09/07 00:37:00;;;;;;;3.13;2.83;;;;;;;20.64;65.08;94003.53;522076;28;1215;-47
2023/09/07 00:37:15;;;;;;;3.50;3.20;;;;;;;20.64;65.11;94004.22;522080;28;1786;-48
2023/09/07 00:37:31;;;;;;;3.30;3.00;;;;;;;20.64;65.10;94004.22;522131;28;843;-47
2023/09/07 00:37:47;;;;;;;3.20;2.90;;;;;;;20.64;65.14;94009.13;522059;28;958;-48
2023/09/07 00:38:02;;;;;;;3.50;3.10;;;;;;;20.64;65.26;94007.03;522032;28;868;-47
2023/09/07 00:38:18;;;;;;;3.28;2.97;;;;;;;20.66;65.12;94006.47;522084;28;841;-47
2023/09/07 00:38:33;;;;;;;3.10;2.80;;;;;;;20.46;65.10;93979.88;522063;28;860;-47
2023/09/07 00:38:48;;;;;;;3.50;2.87;;;;;;;20.63;65.03;94008.38;522082;28;893;-48
2023/09/07 00:39:04;;;;;;;3.50;2.92;;;;;;;20.64;65.03;94007.03;522047;28;884;-47
2023/09/07 00:39:20;;;;;;;3.55;3.00;;;;;;;20.64;65.13;94006.31;522048;28;1633;-48
2023/09/07 00:39:35;;;;;;;3.43;2.90;;;;;;;20.64;65.16;94000.72;522085;28;828;-48
2023/09/07 00:39:52;;;;;;;3.60;3.10;;;;;;;20.63;65.30;94007.66;522136;28;848;-47
2023/09/07 00:40:08;;;;;;;3.17;2.80;;;;;;;20.63;65.27;94004.84;522005;28;956;-48
2023/09/07 00:40:25;;;;;;;3.05;2.75;;;;;;;20.61;65.13;94008.25;522120;28;934;-49
2023/09/07 00:40:45;;;;;;;3.60;3.00;;;;;;;20.61;65.17;94008.25;522078;28;861;-49
2023/09/07 00:41:00;;;;;;;3.35;3.05;;;;;;;20.62;65.04;94006.19;522105;28;1256;-48
2023/09/07 00:41:15;;;;;;;3.22;2.92;;;;;;;20.62;65.18;94006.19;522049;28;852;-48
2023/09/07 00:41:31;;;;;;;3.23;2.83;;;;;;;20.62;65.16;94001.28;522052;28;856;-49
2023/09/07 00:41:46;;;;;;;3.37;3.00;;;;;;;20.62;65.24;94003.38;522088;28;889;-47
2023/09/07 00:42:02;;;;;;;3.28;2.97;;;;;;;20.62;65.02;94009.00;522116;28;797;-47
2023/09/07 00:42:17;;;;;;;2.97;2.67;;;;;;;20.61;65.18;94011.06;522077;28;820;-48
2023/09/07 00:42:33;;;;;;;3.03;2.72;;;;;;;20.61;65.26;94010.31;522046;28;1506;-47
2023/09/07 00:42:48;;;;;;;3.07;2.83;;;;;;;20.60;65.37;94006.78;522161;28;824;-47
2023/09/07 00:43:04;;;;;;;3.42;2.65;;;;;;;20.61;65.35;94007.53;522070;28;888;-50
2023/09/07 00:43:20;;;;;;;4.25;2.80;;;;;;;20.60;65.41;94009.59;522057;28;852;-48
2023/09/07 00:43:35;;;;;;;3.60;2.73;;;;;;;20.60;65.47;94009.59;522033;28;959;-47
2023/09/07 00:43:50;;;;;;;3.77;2.93;;;;;;;20.60;65.52;94008.84;522069;28;856;-48
2023/09/07 00:44:06;;;;;;;3.97;3.25;;;;;;;20.59;65.52;94010.94;521907;28;1662;-47
2023/09/07 00:44:21;;;;;;;3.27;2.93;;;;;;;20.58;65.56;94003.84;522091;28;921;-47
2023/09/07 00:44:36;;;;;;;3.27;2.93;;;;;;;20.58;65.45;94009.44;522037;28;880;-48
2023/09/07 00:44:52;;;;;;;3.25;2.95;;;;;;;20.58;65.52;94011.50;522065;28;1685;-48
2023/09/07 00:45:07;;;;;;;3.27;2.90;;;;;;;20.58;65.43;94005.91;522091;28;798;-47
2023/09/07 00:45:23;;;;;;;3.95;3.03;;;;;;;20.57;65.47;94012.88;522051;28;835;-47
2023/09/07 00:45:39;;;;;;;3.47;2.90;;;;;;;20.57;65.39;94013.59;521831;28;856;-48
2023/09/07 00:45:54;;;;;;;3.40;3.10;;;;;;;20.58;65.40;94011.50;521865;28;909;-47
2023/09/07 00:46:10;;;;;;;3.33;3.03;;;;;;;20.37;65.39;93981.41;521863;28;780;-47
2023/09/07 00:46:26;;;;;;;3.50;2.80;;;;;;;20.57;65.43;94010.81;521880;28;821;-47
2023/09/07 00:46:44;;;;;;;4.30;3.05;;;;;;;20.43;65.51;93987.41;521890;28;896;-48
2023/09/07 00:46:59;;;;;;;3.45;3.08;;;;;;;20.56;65.58;94006.50;521871;28;937;-48
2023/09/07 00:47:15;;;;;;;3.57;3.07;;;;;;;20.18;65.58;93962.59;521853;28;895;-48
2023/09/07 00:47:34;;;;;;;4.22;3.30;;;;;;;20.56;65.60;94012.13;521886;28;1966;-47
2023/09/07 00:47:49;;;;;;;3.40;2.92;;;;;;;20.56;65.50;94009.31;522070;28;909;-46
2023/09/07 00:48:05;;;;;;;3.07;2.77;;;;;;;20.55;65.78;94009.94;521839;28;837;-47
2023/09/07 00:48:21;;;;;;;3.28;2.97;;;;;;;20.55;65.73;94007.13;521910;28;824;-47
2023/09/07 00:48:37;;;;;;;3.28;2.97;;;;;;;20.54;65.80;94008.44;521878;28;898;-47
2023/09/07 00:48:53;;;;;;;3.58;2.92;;;;;;;20.54;65.85;94009.19;519794;28;969;-47
2023/09/07 00:49:08;;;;;;;3.88;3.10;;;;;;;20.55;65.86;94015.53;519790;28;873;-47
2023/09/07 00:49:24;;;;;;;3.93;3.03;;;;;;;20.54;65.79;94009.19;519890;28;773;-51
2023/09/07 00:49:40;;;;;;;4.13;2.90;;;;;;;20.54;65.76;94008.44;519847;28;848;-47
2023/09/07 00:49:55;;;;;;;3.40;2.83;;;;;;;20.54;65.75;94012.00;520473;28;835;-47
2023/09/07 00:50:14;;;;;;;3.00;2.67;;;;;;;20.54;65.78;94009.19;521832;28;1461;-47
2023/09/07 00:50:29;;;;;;;2.95;2.65;;;;;;;20.45;65.63;93998.75;521842;28;904;-47
2023/09/07 00:50:45;;;;;;;2.83;2.63;;;;;;;20.55;65.80;94009.94;519818;28;891;-48
2023/09/07 00:51:00;;;;;;;3.20;2.90;;;;;;;20.54;65.84;94003.56;519839;28;903;-48
2023/09/07 00:51:16;;;;;;;3.88;3.15;;;;;;;20.53;65.88;94007.72;519839;28;818;-47
2023/09/07 00:51:32;;;;;;;3.30;2.70;;;;;;;20.52;65.77;94009.06;519848;28;1041;-48
2023/09/07 00:51:47;;;;;;;3.20;2.90;;;;;;;20.52;65.75;94009.06;520675;28;1008;-49
2023/09/07 00:52:04;;;;;;;3.87;3.20;;;;;;;20.51;65.87;94001.97;521817;28;1125;-47
2023/09/07 00:52:20;;;;;;;3.92;3.10;;;;;;;20.51;65.80;94010.38;519762;28;1380;-49
2023/09/07 00:52:39;;;;;;;3.67;3.20;;;;;;;20.51;65.77;94004.78;520427;28;1042;-47
2023/09/07 00:52:55;;;;;;;3.35;3.05;;;;;;;20.51;65.75;94001.97;521855;28;992;-48
2023/09/07 00:53:10;;;;;;;2.90;2.70;;;;;;;20.51;65.71;94001.97;521952;28;765;-47
2023/09/07 00:53:27;;;;;;;3.38;3.08;;;;;;;20.51;65.99;93998.44;521808;28;809;-47
2023/09/07 00:53:43;;;;;;;3.67;3.10;;;;;;;20.51;66.08;94001.25;521932;28;982;-47
2023/09/07 00:53:59;;;;;;;3.88;2.95;;;;;;;20.49;66.14;94010.25;521886;28;817;-49
2023/09/07 00:54:14;;;;;;;3.50;2.80;;;;;;;20.48;66.22;94003.19;521837;28;836;-48
2023/09/07 00:54:30;;;;;;;3.28;2.92;;;;;;;20.49;66.27;94006.72;522060;28;812;-48
2023/09/07 00:54:45;;;;;;;3.30;3.00;;;;;;;20.50;66.23;94002.56;522015;28;900;-47
2023/09/07 00:55:02;;;;;;;4.67;3.00;;;;;;;20.50;66.34;94011.00;522029;28;1643;-47
2023/09/07 00:55:17;;;;;;;4.82;3.20;;;;;;;20.49;66.26;94013.06;521969;28;903;-47
2023/09/07 00:55:34;;;;;;;3.70;3.17;;;;;;;20.50;66.24;94005.38;521872;28;1029;-47
2023/09/07 00:55:50;;;;;;;3.50;3.20;;;;;;;20.50;66.25;94003.31;521880;28;956;-47
2023/09/07 00:56:06;;;;;;;3.60;3.30;;;;;;;20.49;66.18;93998.31;519642;28;915;-47
2023/09/07 00:56:22;;;;;;;3.58;3.20;;;;;;;20.49;66.08;93999.03;519851;28;1056;-47
2023/09/07 00:56:37;;;;;;;3.73;3.23;;;;;;;20.49;66.02;94003.94;519777;28;856;-47
2023/09/07 00:56:52;;;;;;;4.32;3.25;;;;;;;20.48;65.96;94006.00;519790;28;909;-49
2023/09/07 00:57:08;;;;;;;4.10;3.30;;;;;;;20.49;65.97;93999.03;519832;28;951;-48
2023/09/07 00:57:24;;;;;;;4.23;3.33;;;;;;;20.49;65.99;94003.94;518413;28;893;-46
2023/09/07 00:57:42;;;;;;;4.43;3.30;;;;;;;20.49;66.01;93998.31;519788;28;1038;-47
2023/09/07 00:57:57;;;;;;;3.42;3.05;;;;;;;20.48;66.13;94000.38;520587;28;880;-48
2023/09/07 00:58:13;;;;;;;3.63;3.10;;;;;;;20.47;66.14;93995.34;519682;28;911;-48
2023/09/07 00:58:29;;;;;;;3.57;3.13;;;;;;;20.47;66.17;94000.97;519799;28;857;-49
2023/09/07 00:58:44;;;;;;;3.63;3.25;;;;;;;20.46;66.27;94003.06;519866;28;892;-48
2023/09/07 00:59:00;;;;;;;4.17;3.40;;;;;;;20.46;66.36;94003.06;519770;28;947;-47
2023/09/07 00:59:15;;;;;;;4.05;3.10;;;;;;;20.45;66.38;94004.38;521775;28;983;-47
2023/09/07 00:59:32;;;;;;;3.33;3.03;;;;;;;20.45;66.37;94001.56;521853;28;931;-49
2023/09/07 00:59:47;;;;;;;3.55;3.25;;;;;;;20.46;66.42;93999.50;521858;28;888;-48
2023/09/07 01:00:07;;;;;;;3.50;3.20;;;;;;;20.27;66.65;93977.94;521876;28;773;-46
2023/09/07 01:00:22;;;;;;;3.55;3.15;;;;;;;20.45;66.44;93998.75;521800;28;920;-48
2023/09/07 01:00:39;;;;;;;4.00;3.60;;;;;;;20.45;66.44;94000.81;521890;28;855;-47
2023/09/07 01:00:55;;;;;;;3.72;3.30;;;;;;;20.44;66.58;94002.19;521765;28;963;-48
2023/09/07 01:01:10;;;;;;;3.42;3.08;;;;;;;20.44;66.59;94002.91;520592;28;962;-48
2023/09/07 01:01:26;;;;;;;3.87;3.40;;;;;;;20.43;66.55;94001.44;519720;28;872;-47
2023/09/07 01:01:43;;;;;;;3.53;3.10;;;;;;;20.42;66.50;94003.50;520975;28;1099;-49
2023/09/07 01:01:58;;;;;;;5.90;3.10;;;;;;;20.42;66.45;93997.88;521879;28;913;-46
2023/09/07 01:02:13;;;;;;;4.85;2.95;;;;;;;20.43;66.37;93998.63;521714;28;888;-48
2023/09/07 01:02:29;;;;;;;4.43;2.90;;;;;;;20.40;66.32;93999.81;521840;28;1648;-46
2023/09/07 01:02:45;;;;;;;5.53;2.97;;;;;;;20.42;66.39;93999.97;521854;28;915;-47
2023/09/07 01:03:01;;;;;;;4.37;2.90;;;;;;;20.42;66.31;93999.97;521943;28;814;-48
2023/09/07 01:03:16;;;;;;;4.03;3.00;;;;;;;20.41;66.41;94004.09;521845;28;905;-48
2023/09/07 01:03:31;;;;;;;3.80;3.00;;;;;;;20.38;66.37;93994.09;521981;28;813;-47
2023/09/07 01:03:47;;;;;;;3.40;3.00;;;;;;;20.42;66.31;94005.59;522009;28;880;-49
2023/09/07 01:04:03;;;;;;;3.37;3.07;;;;;;;20.35;66.39;93989.69;521994;28;863;-48
2023/09/07 01:04:18;;;;;;;3.38;3.08;;;;;;;20.42;66.26;93997.19;521920;28;842;-48
2023/09/07 01:04:33;;;;;;;3.25;2.80;;;;;;;20.42;66.29;93997.19;521935;28;868;-48
2023/09/07 01:04:51;;;;;;;3.07;2.77;;;;;;;20.42;66.28;93993.63;522065;28;920;-47
2023/09/07 01:05:06;;;;;;;3.05;2.75;;;;;;;20.41;66.33;94001.31;521768;28;946;-46
2023/09/07 01:05:27;;;;;;;3.00;2.70;;;;;;;20.41;66.33;93995.69;521765;28;1672;-47
2023/09/07 01:06:11;;;;;;;3.05;2.75;;;;;;;20.41;66.49;94001.31;519796;28;1716;-49
2023/09/07 01:06:33;;;;;;;3.63;3.08;;;;;;;20.15;66.42;93977.84;519052;28;1226;-47
2023/09/07 01:06:54;;;;;;;4.00;3.10;;;;;;;20.37;66.43;94003.84;519566;28;1678;-47
2023/09/07 01:07:18;;;;;;;3.42;2.90;;;;;;;20.32;66.37;93999.28;517205;28;2044;-47
2023/09/07 01:07:46;;;;;;;3.55;2.88;;;;;;;20.33;66.35;93998.72;516355;28;1914;-47
2023/09/07 01:08:12;;;;;;;4.40;3.00;;;;;;;20.31;66.47;93998.56;517699;28;884;-47
2023/09/07 01:08:32;;;;;;;5.35;3.50;;;;;;;20.30;66.50;93999.16;515590;28;1342;-48
2023/09/07 01:08:54;;;;;;;3.45;3.15;;;;;;;20.27;66.70;94003.19;515491;28;940;-47
2023/09/07 01:09:13;;;;;;;3.80;3.25;;;;;;;20.27;66.57;94003.19;517642;28;834;-49
2023/09/07 01:09:30;;;;;;;3.72;3.08;;;;;;;20.27;66.72;94000.38;515490;28;1057;-46
2023/09/07 01:09:49;;;;;;;4.63;3.00;;;;;;;20.26;66.68;94001.69;515386;28;855;-47
2023/09/07 01:10:06;;;;;;;3.90;2.90;;;;;;;20.25;66.79;94000.22;517526;28;796;-47
2023/09/07 01:10:22;;;;;;;3.40;3.10;;;;;;;20.24;66.84;94007.91;518925;28;881;-49
2023/09/07 01:10:37;;;;;;;3.60;3.30;;;;;;;20.23;66.93;94002.88;520221;28;919;-46
2023/09/07 01:10:53;;;;;;;3.53;3.20;;;;;;;20.23;66.88;94005.69;521810;28;857;-49
2023/09/07 01:11:22;;;;;;;4.85;3.28;;;;;;;20.21;66.96;94000.69;521834;28;932;-47
2023/09/07 01:11:38;;;;;;;4.45;3.20;;;;;;;20.21;67.09;93997.16;523835;28;906;-47
2023/09/07 01:11:53;;;;;;;3.37;3.07;;;;;;;20.20;67.06;93996.44;523259;28;856;-48
2023/09/07 01:12:14;;;;;;;3.83;3.43;;;;;;;20.20;67.28;94006.88;519904;28;828;-47
2023/09/07 01:12:30;;;;;;;3.80;3.13;;;;;;;20.19;67.33;94005.41;519901;28;896;-48
2023/09/07 01:12:45;;;;;;;3.67;3.00;;;;;;;19.92;67.42;93968.53;519879;28;902;-47
2023/09/07 01:13:01;;;;;;;3.20;2.90;;;;;;;20.17;67.14;94000.41;520005;28;1002;-47
2023/09/07 01:13:16;;;;;;;3.30;3.03;;;;;;;20.17;67.31;94008.81;519912;28;805;-48
2023/09/07 01:13:31;;;;;;;3.50;3.17;;;;;;;20.16;67.34;94007.31;519919;28;824;-47
2023/09/07 01:13:47;;;;;;;3.43;3.10;;;;;;;20.13;67.33;94000.13;519945;28;953;-47
2023/09/07 01:14:04;;;;;;;3.58;3.28;;;;;;;20.14;67.24;94004.38;519967;28;992;-48
2023/09/07 01:14:19;;;;;;;4.03;3.47;;;;;;;20.15;67.32;94005.13;519767;28;927;-46
2023/09/07 01:14:35;;;;;;;3.88;3.13;;;;;;;19.79;67.23;93955.75;519888;28;761;-47
2023/09/07 01:14:50;;;;;;;4.77;3.30;;;;;;;20.14;67.33;94000.88;519964;28;820;-47
2023/09/07 01:15:06;;;;;;;5.55;3.53;;;;;;;20.14;67.28;94009.28;519892;28;865;-48
2023/09/07 01:15:21;;;;;;;5.47;3.25;;;;;;;20.14;67.24;94006.47;519967;28;853;-47
2023/09/07 01:15:37;;;;;;;5.33;3.47;;;;;;;20.13;67.35;94007.78;519904;28;812;-48
2023/09/07 01:15:53;;;;;;;4.75;3.65;;;;;;;19.88;67.16;93985.06;519912;28;838;-48
2023/09/07 01:16:12;;;;;;;4.23;3.63;;;;;;;20.12;67.59;94004.25;519674;28;817;-47
2023/09/07 01:16:28;;;;;;;5.22;3.50;;;;;;;20.13;67.68;94005.00;519768;28;835;-46
2023/09/07 01:16:44;;;;;;;3.95;3.45;;;;;;;20.12;67.74;94000.72;517998;28;1127;-47
2023/09/07 01:16:59;;;;;;;4.17;3.77;;;;;;;20.13;67.83;94007.78;519764;28;918;-47
2023/09/07 01:17:15;;;;;;;3.97;3.55;;;;;;;20.11;67.88;94007.66;517626;28;887;-47
2023/09/07 01:17:31;;;;;;;3.90;3.25;;;;;;;20.12;67.79;94000.72;517778;28;804;-47
2023/09/07 01:17:46;;;;;;;4.50;3.63;;;;;;;20.12;67.76;94011.94;517669;28;887;-47
2023/09/07 01:18:02;;;;;;;4.13;3.40;;;;;;;20.12;67.76;94006.34;518734;28;1082;-49
2023/09/07 01:18:18;;;;;;;7.10;3.40;;;;;;;20.11;67.83;94004.84;519563;28;2347;-46
2023/09/07 01:18:33;;;;;;;7.87;3.97;;;;;;;20.11;67.75;94008.41;520413;28;886;-47
2023/09/07 01:18:49;;;;;;;4.95;4.15;;;;;;;20.08;67.82;94000.44;521751;28;911;-48
2023/09/07 01:19:08;;;;;;;4.40;3.78;;;;;;;20.10;67.73;94004.13;521727;28;887;-47